Albany, New York
Current Conditions -  °F | °C
As of 3:51 AM on Friday 24 Oct 2014 (Local Time) from KALB Reporting Station
Drizzle Drizzle  
Wind Chill: 44°   Ceiling: 400
Heat Index: 46°   Visibility: 4mi
Dew Point: 44°   Wind: 5mph
Humidity: 93%   Direction: 10°N
Pressure: 29.81"   Gusts: NA
Location:  42.65°N, 73.75°W
Report Text: KALB 240751Z 01004KT 4SM -DZ BR OVC004 08/07 A2981 RMK AO2 RAE31DZB31 SLP095 P0001 T00780067
Loading
Personal Weather Stations






























Interactive Weather Map
Tropical Storm Tracking
New forecast layout! Learn more

10-Day Weather Forecast

Advertisements
Track Severe Weather on mobile